sensor_id;sensor_type;location;lat;lon;timestamp;pressure;altitude;pressure_sealevel;temperature;humidity
6198;BME280;3132;42.622;23.328;2023-08-21T00:01:15;93240.28;;;22.62;61.98
6198;BME280;3132;42.622;23.328;2023-08-21T00:03:41;93237.09;;;22.44;62.58
6198;BME280;3132;42.622;23.328;2023-08-21T00:06:06;93233.09;;;22.50;62.28
6198;BME280;3132;42.622;23.328;2023-08-21T00:08:31;93229.78;;;22.41;62.01
6198;BME280;3132;42.622;23.328;2023-08-21T00:10:57;93231.09;;;22.35;62.43
6198;BME280;3132;42.622;23.328;2023-08-21T00:13:22;93230.34;;;22.35;61.78
6198;BME280;3132;42.622;23.328;2023-08-21T00:15:47;93234.88;;;22.34;61.50
6198;BME280;3132;42.622;23.328;2023-08-21T00:18:13;93237.66;;;22.38;60.90
6198;BME280;3132;42.622;23.328;2023-08-21T00:20:39;93235.09;;;22.41;61.00
6198;BME280;3132;42.622;23.328;2023-08-21T00:23:06;93241.53;;;22.40;61.23
6198;BME280;3132;42.622;23.328;2023-08-21T00:25:33;93233.75;;;22.35;61.59
6198;BME280;3132;42.622;23.328;2023-08-21T00:27:58;93235.56;;;22.31;60.75
6198;BME280;3132;42.622;23.328;2023-08-21T00:30:23;93230.66;;;22.45;60.59
6198;BME280;3132;42.622;23.328;2023-08-21T00:32:49;93228.53;;;22.51;60.30
6198;BME280;3132;42.622;23.328;2023-08-21T00:35:14;93223.78;;;22.44;60.97
6198;BME280;3132;42.622;23.328;2023-08-21T00:37:39;93233.09;;;22.50;61.11
6198;BME280;3132;42.622;23.328;2023-08-21T00:40:05;93219.13;;;22.41;61.96
6198;BME280;3132;42.622;23.328;2023-08-21T00:42:31;93226.00;;;22.42;62.77
6198;BME280;3132;42.622;23.328;2023-08-21T00:44:56;93234.31;;;22.41;63.52
6198;BME280;3132;42.622;23.328;2023-08-21T00:47:21;93238.22;;;22.31;63.18
6198;BME280;3132;42.622;23.328;2023-08-21T00:49:47;93242.56;;;22.23;63.44
6198;BME280;3132;42.622;23.328;2023-08-21T00:52:14;93246.88;;;22.28;63.06
6198;BME280;3132;42.622;23.328;2023-08-21T00:54:40;93239.00;;;22.19;63.51
6198;BME280;3132;42.622;23.328;2023-08-21T00:57:05;93248.97;;;22.10;63.17
6198;BME280;3132;42.622;23.328;2023-08-21T00:59:31;93247.88;;;22.23;62.91
6198;BME280;3132;42.622;23.328;2023-08-21T01:01:56;93246.00;;;22.24;62.95
6198;BME280;3132;42.622;23.328;2023-08-21T01:04:22;93245.09;;;22.20;64.04
6198;BME280;3132;42.622;23.328;2023-08-21T01:06:51;93245.88;;;21.96;64.18
6198;BME280;3132;42.622;23.328;2023-08-21T01:09:38;93245.78;;;21.93;63.11
6198;BME280;3132;42.622;23.328;2023-08-21T01:17:24;93247.53;;;22.01;62.71
6198;BME280;3132;42.622;23.328;2023-08-21T01:19:51;93250.00;;;21.94;62.85
6198;BME280;3132;42.622;23.328;2023-08-21T01:22:18;93249.88;;;21.90;62.65
6198;BME280;3132;42.622;23.328;2023-08-21T01:24:43;93250.66;;;22.03;62.46
6198;BME280;3132;42.622;23.328;2023-08-21T01:27:10;93246.56;;;22.17;62.19
6198;BME280;3132;42.622;23.328;2023-08-21T01:29:36;93248.00;;;21.91;62.83
6198;BME280;3132;42.622;23.328;2023-08-21T01:34:31;93238.69;;;21.85;63.03
6198;BME280;3132;42.622;23.328;2023-08-21T01:36:59;93248.22;;;21.98;63.46
6198;BME280;3132;42.622;23.328;2023-08-21T01:39:25;93252.19;;;22.04;63.15
6198;BME280;3132;42.622;23.328;2023-08-21T01:41:50;93241.34;;;21.85;64.20
6198;BME280;3132;42.622;23.328;2023-08-21T01:44:16;93248.88;;;21.95;63.39
6198;BME280;3132;42.622;23.328;2023-08-21T01:46:41;93247.34;;;21.82;63.68
6198;BME280;3132;42.622;23.328;2023-08-21T01:49:06;93247.75;;;21.84;63.37
6198;BME280;3132;42.622;23.328;2023-08-21T01:51:32;93260.63;;;21.94;62.97
6198;BME280;3132;42.622;23.328;2023-08-21T01:53:57;93250.22;;;21.89;62.99
6198;BME280;3132;42.622;23.328;2023-08-21T01:56:22;93242.69;;;21.79;63.42
6198;BME280;3132;42.622;23.328;2023-08-21T01:58:48;93235.22;;;21.72;64.27
6198;BME280;3132;42.622;23.328;2023-08-21T02:01:14;93238.22;;;21.71;63.99
6198;BME280;3132;42.622;23.328;2023-08-21T02:03:40;93240.88;;;21.71;64.53
6198;BME280;3132;42.622;23.328;2023-08-21T02:06:06;93237.31;;;21.67;64.90
6198;BME280;3132;42.622;23.328;2023-08-21T02:08:33;93239.44;;;21.73;64.86
6198;BME280;3132;42.622;23.328;2023-08-21T02:10:58;93236.44;;;21.63;64.84
6198;BME280;3132;42.622;23.328;2023-08-21T02:13:24;93236.47;;;21.75;64.72
6198;BME280;3132;42.622;23.328;2023-08-21T02:15:50;93244.41;;;21.63;64.37
6198;BME280;3132;42.622;23.328;2023-08-21T02:18:15;93241.78;;;21.75;63.99
6198;BME280;3132;42.622;23.328;2023-08-21T02:20:41;93235.09;;;21.69;63.84
6198;BME280;3132;42.622;23.328;2023-08-21T02:23:07;93237.25;;;21.75;64.22
6198;BME280;3132;42.622;23.328;2023-08-21T02:25:32;93237.78;;;21.81;64.00
6198;BME280;3132;42.622;23.328;2023-08-21T02:27:58;93239.56;;;21.77;64.02
6198;BME280;3132;42.622;23.328;2023-08-21T02:30:23;93227.50;;;21.79;64.68
6198;BME280;3132;42.622;23.328;2023-08-21T02:32:54;93226.69;;;21.67;64.70
6198;BME280;3132;42.622;23.328;2023-08-21T02:35:22;93227.59;;;21.71;65.29
6198;BME280;3132;42.622;23.328;2023-08-21T02:37:48;93231.59;;;21.77;65.52
6198;BME280;3132;42.622;23.328;2023-08-21T02:40:13;93225.69;;;21.59;64.68
6198;BME280;3132;42.622;23.328;2023-08-21T02:42:39;93234.19;;;21.53;64.47
6198;BME280;3132;42.622;23.328;2023-08-21T02:45:05;93238.41;;;21.54;64.87
6198;BME280;3132;42.622;23.328;2023-08-21T02:47:40;93236.84;;;21.53;63.90
6198;BME280;3132;42.622;23.328;2023-08-21T02:50:07;93233.91;;;21.66;64.98
6198;BME280;3132;42.622;23.328;2023-08-21T02:52:33;93232.78;;;21.55;66.97
6198;BME280;3132;42.622;23.328;2023-08-21T02:54:59;93232.09;;;21.46;65.90
6198;BME280;3132;42.622;23.328;2023-08-21T02:57:25;93232.72;;;21.43;68.03
6198;BME280;3132;42.622;23.328;2023-08-21T02:59:51;93234.31;;;21.44;67.32
6198;BME280;3132;42.622;23.328;2023-08-21T03:02:17;93238.38;;;21.30;67.85
6198;BME280;3132;42.622;23.328;2023-08-21T03:04:43;93228.94;;;21.20;67.74
6198;BME280;3132;42.622;23.328;2023-08-21T03:07:08;93237.81;;;21.24;68.44
6198;BME280;3132;42.622;23.328;2023-08-21T03:09:34;93231.69;;;21.12;68.61
6198;BME280;3132;42.622;23.328;2023-08-21T03:11:59;93228.22;;;20.99;69.13
6198;BME280;3132;42.622;23.328;2023-08-21T03:14:26;93240.63;;;21.07;69.66
6198;BME280;3132;42.622;23.328;2023-08-21T03:16:52;93228.97;;;21.00;69.34
6198;BME280;3132;42.622;23.328;2023-08-21T03:19:17;93234.69;;;20.90;69.70
6198;BME280;3132;42.622;23.328;2023-08-21T03:21:43;93239.97;;;20.90;71.00
6198;BME280;3132;42.622;23.328;2023-08-21T03:24:08;93241.09;;;20.89;70.41
6198;BME280;3132;42.622;23.328;2023-08-21T03:26:33;93244.06;;;20.87;70.03
6198;BME280;3132;42.622;23.328;2023-08-21T03:28:59;93246.72;;;20.87;70.93
6198;BME280;3132;42.622;23.328;2023-08-21T03:31:24;93243.03;;;20.80;70.05
6198;BME280;3132;42.622;23.328;2023-08-21T03:33:50;93247.91;;;20.78;70.58
6198;BME280;3132;42.622;23.328;2023-08-21T03:36:15;93248.56;;;20.75;70.85
6198;BME280;3132;42.622;23.328;2023-08-21T03:38:40;93248.88;;;20.73;70.79
6198;BME280;3132;42.622;23.328;2023-08-21T03:41:06;93250.75;;;20.73;71.72
6198;BME280;3132;42.622;23.328;2023-08-21T03:43:32;93245.38;;;20.60;75.21
6198;BME280;3132;42.622;23.328;2023-08-21T03:45:57;93237.75;;;20.59;72.39
6198;BME280;3132;42.622;23.328;2023-08-21T03:48:23;93236.69;;;20.51;70.54
6198;BME280;3132;42.622;23.328;2023-08-21T03:50:49;93242.19;;;20.67;70.82
6198;BME280;3132;42.622;23.328;2023-08-21T03:53:14;93253.31;;;20.81;70.51
6198;BME280;3132;42.622;23.328;2023-08-21T03:55:40;93251.78;;;20.80;72.65
6198;BME280;3132;42.622;23.328;2023-08-21T03:58:05;93236.50;;;20.77;71.13
6198;BME280;3132;42.622;23.328;2023-08-21T04:00:31;93252.78;;;20.88;71.12
6198;BME280;3132;42.622;23.328;2023-08-21T04:02:57;93260.09;;;20.91;71.30
6198;BME280;3132;42.622;23.328;2023-08-21T04:05:22;93254.44;;;21.01;69.95
6198;BME280;3132;42.622;23.328;2023-08-21T04:07:48;93252.81;;;21.08;70.19
6198;BME280;3132;42.622;23.328;2023-08-21T04:10:13;93251.38;;;21.11;70.21
6198;BME280;3132;42.622;23.328;2023-08-21T04:12:39;93259.78;;;21.13;70.28
6198;BME280;3132;42.622;23.328;2023-08-21T04:15:04;93263.13;;;21.22;70.02
6198;BME280;3132;42.622;23.328;2023-08-21T04:17:31;93263.84;;;21.31;69.49
6198;BME280;3132;42.622;23.328;2023-08-21T04:19:56;93263.19;;;21.46;69.11
6198;BME280;3132;42.622;23.328;2023-08-21T04:22:22;93266.31;;;21.48;69.14
6198;BME280;3132;42.622;23.328;2023-08-21T04:24:48;93259.44;;;21.59;68.63
6198;BME280;3132;42.622;23.328;2023-08-21T04:27:13;93271.44;;;21.65;69.74
6198;BME280;3132;42.622;23.328;2023-08-21T04:29:39;93263.69;;;21.60;69.94
6198;BME280;3132;42.622;23.328;2023-08-21T04:32:04;93278.78;;;21.80;69.31
6198;BME280;3132;42.622;23.328;2023-08-21T04:34:32;93272.25;;;21.89;69.27
6198;BME280;3132;42.622;23.328;2023-08-21T04:36:57;93265.94;;;21.94;69.33
6198;BME280;3132;42.622;23.328;2023-08-21T04:39:23;93277.38;;;22.06;69.13
6198;BME280;3132;42.622;23.328;2023-08-21T04:41:48;93273.03;;;22.14;68.75
6198;BME280;3132;42.622;23.328;2023-08-21T04:44:13;93279.56;;;22.29;68.61
6198;BME280;3132;42.622;23.328;2023-08-21T04:46:39;93265.28;;;22.33;66.83
6198;BME280;3132;42.622;23.328;2023-08-21T04:49:04;93282.09;;;22.49;66.42
6198;BME280;3132;42.622;23.328;2023-08-21T04:51:31;93263.72;;;22.56;66.91
6198;BME280;3132;42.622;23.328;2023-08-21T04:53:56;93272.28;;;22.77;65.13
6198;BME280;3132;42.622;23.328;2023-08-21T04:56:21;93275.34;;;22.91;64.59
6198;BME280;3132;42.622;23.328;2023-08-21T04:58:47;93274.09;;;23.01;64.39
6198;BME280;3132;42.622;23.328;2023-08-21T05:01:12;93283.41;;;23.07;63.28
6198;BME280;3132;42.622;23.328;2023-08-21T05:03:37;93284.91;;;23.20;63.09
6198;BME280;3132;42.622;23.328;2023-08-21T05:06:03;93289.88;;;23.33;62.37
6198;BME280;3132;42.622;23.328;2023-08-21T05:08:28;93278.81;;;23.31;62.74
6198;BME280;3132;42.622;23.328;2023-08-21T05:10:58;93292.16;;;23.47;62.20
6198;BME280;3132;42.622;23.328;2023-08-21T05:13:23;93306.00;;;23.52;62.33
6198;BME280;3132;42.622;23.328;2023-08-21T05:15:53;93297.50;;;23.47;63.00
6198;BME280;3132;42.622;23.328;2023-08-21T05:18:22;93303.59;;;23.47;63.27
6198;BME280;3132;42.622;23.328;2023-08-21T05:20:48;93308.19;;;23.62;62.39
6198;BME280;3132;42.622;23.328;2023-08-21T05:23:14;93304.88;;;23.53;62.82
6198;BME280;3132;42.622;23.328;2023-08-21T05:25:39;93306.22;;;23.59;63.25
6198;BME280;3132;42.622;23.328;2023-08-21T05:28:06;93310.25;;;23.69;63.08
6198;BME280;3132;42.622;23.328;2023-08-21T05:30:32;93306.22;;;23.59;63.05
6198;BME280;3132;42.622;23.328;2023-08-21T05:32:57;93294.50;;;23.48;65.90
6198;BME280;3132;42.622;23.328;2023-08-21T05:35:23;93305.09;;;23.60;64.47
6198;BME280;3132;42.622;23.328;2023-08-21T05:37:48;93298.09;;;23.40;66.39
6198;BME280;3132;42.622;23.328;2023-08-21T05:40:14;93309.31;;;23.34;66.63
6198;BME280;3132;42.622;23.328;2023-08-21T05:42:39;93303.28;;;23.64;65.81
6198;BME280;3132;42.622;23.328;2023-08-21T05:45:05;93307.59;;;23.85;65.15
6198;BME280;3132;42.622;23.328;2023-08-21T05:47:31;93300.47;;;23.73;64.62
6198;BME280;3132;42.622;23.328;2023-08-21T05:49:56;93310.00;;;23.90;64.12
6198;BME280;3132;42.622;23.328;2023-08-21T05:52:22;93299.41;;;24.55;61.79
6198;BME280;3132;42.622;23.328;2023-08-21T05:54:48;93300.91;;;24.53;62.26
6198;BME280;3132;42.622;23.328;2023-08-21T05:57:14;93297.25;;;24.61;59.56
6198;BME280;3132;42.622;23.328;2023-08-21T05:59:44;93294.50;;;24.73;60.32
6198;BME280;3132;42.622;23.328;2023-08-21T06:02:10;93296.44;;;24.26;61.10
6198;BME280;3132;42.622;23.328;2023-08-21T06:04:36;93312.69;;;25.59;57.30
6198;BME280;3132;42.622;23.328;2023-08-21T06:07:02;93315.47;;;28.01;50.00
6198;BME280;3132;42.622;23.328;2023-08-21T06:09:29;93326.84;;;32.06;39.52
6198;BME280;3132;42.622;23.328;2023-08-21T06:11:55;93337.50;;;34.24;34.13
6198;BME280;3132;42.622;23.328;2023-08-21T06:14:20;93354.44;;;35.53;31.35
6198;BME280;3132;42.622;23.328;2023-08-21T06:16:53;93346.94;;;33.08;34.39
6198;BME280;3132;42.622;23.328;2023-08-21T06:19:18;93339.50;;;30.49;39.70
6198;BME280;3132;42.622;23.328;2023-08-21T06:21:44;93332.50;;;29.13;43.46
6198;BME280;3132;42.622;23.328;2023-08-21T06:24:09;93328.25;;;27.78;47.63
6198;BME280;3132;42.622;23.328;2023-08-21T06:26:35;93324.50;;;26.94;49.36
6198;BME280;3132;42.622;23.328;2023-08-21T06:29:00;93330.47;;;26.84;51.11
6198;BME280;3132;42.622;23.328;2023-08-21T06:31:25;93322.25;;;26.96;50.30
6198;BME280;3132;42.622;23.328;2023-08-21T06:33:51;93325.56;;;26.14;52.61
6198;BME280;3132;42.622;23.328;2023-08-21T06:36:16;93323.81;;;25.61;54.55
6198;BME280;3132;42.622;23.328;2023-08-21T06:38:41;93324.16;;;25.79;53.38
6198;BME280;3132;42.622;23.328;2023-08-21T06:41:07;93325.66;;;26.21;53.50
6198;BME280;3132;42.622;23.328;2023-08-21T06:43:32;93329.63;;;26.53;52.61
6198;BME280;3132;42.622;23.328;2023-08-21T06:45:57;93331.75;;;26.41;52.01
6198;BME280;3132;42.622;23.328;2023-08-21T07:05:01;93341.78;;;26.25;51.80
6198;BME280;3132;42.622;23.328;2023-08-21T07:07:28;93341.00;;;26.24;50.19
6198;BME280;3132;42.622;23.328;2023-08-21T07:09:53;93340.50;;;26.38;50.96
6198;BME280;3132;42.622;23.328;2023-08-21T07:12:18;93335.41;;;26.78;48.75
6198;BME280;3132;42.622;23.328;2023-08-21T07:14:44;93339.25;;;27.07;49.02
6198;BME280;3132;42.622;23.328;2023-08-21T07:17:09;93345.47;;;27.14;47.97
6198;BME280;3132;42.622;23.328;2023-08-21T07:19:34;93337.56;;;26.95;47.33
6198;BME280;3132;42.622;23.328;2023-08-21T07:22:00;93325.84;;;26.81;49.46
6198;BME280;3132;42.622;23.328;2023-08-21T07:24:25;93338.00;;;27.01;48.87
6198;BME280;3132;42.622;23.328;2023-08-21T07:26:50;93336.03;;;26.98;48.47
6198;BME280;3132;42.622;23.328;2023-08-21T07:29:16;93334.31;;;26.83;48.37
6198;BME280;3132;42.622;23.328;2023-08-21T07:31:41;93339.00;;;26.89;47.84
6198;BME280;3132;42.622;23.328;2023-08-21T07:34:07;93330.25;;;27.22;47.88
6198;BME280;3132;42.622;23.328;2023-08-21T07:36:33;93336.75;;;27.21;48.71
6198;BME280;3132;42.622;23.328;2023-08-21T07:38:58;93338.94;;;27.74;45.31
6198;BME280;3132;42.622;23.328;2023-08-21T07:41:24;93338.25;;;27.48;47.01
6198;BME280;3132;42.622;23.328;2023-08-21T07:43:49;93333.44;;;27.31;46.58
6198;BME280;3132;42.622;23.328;2023-08-21T07:46:14;93339.25;;;27.66;46.54
6198;BME280;3132;42.622;23.328;2023-08-21T07:48:46;93334.19;;;27.28;46.59
6198;BME280;3132;42.622;23.328;2023-08-21T07:51:12;93341.56;;;27.34;45.88
6198;BME280;3132;42.622;23.328;2023-08-21T07:53:38;93305.56;;;27.72;44.52
6198;BME280;3132;42.622;23.328;2023-08-21T07:56:04;93337.00;;;28.08;44.11
6198;BME280;3132;42.622;23.328;2023-08-21T07:58:30;93333.63;;;28.11;44.04
6198;BME280;3132;42.622;23.328;2023-08-21T08:00:56;93331.09;;;28.32;44.59
6198;BME280;3132;42.622;23.328;2023-08-21T08:03:21;93338.19;;;28.10;46.17
6198;BME280;3132;42.622;23.328;2023-08-21T08:05:47;93327.47;;;28.10;44.56
6198;BME280;3132;42.622;23.328;2023-08-21T08:08:12;93333.91;;;28.46;43.85
6198;BME280;3132;42.622;23.328;2023-08-21T08:10:38;93334.97;;;28.82;42.34
6198;BME280;3132;42.622;23.328;2023-08-21T08:13:04;93332.00;;;28.47;43.16
6198;BME280;3132;42.622;23.328;2023-08-21T08:15:30;93326.69;;;28.10;43.50
6198;BME280;3132;42.622;23.328;2023-08-21T08:17:57;93332.94;;;28.65;43.17
6198;BME280;3132;42.622;23.328;2023-08-21T08:20:22;93328.69;;;28.60;42.16
6198;BME280;3132;42.622;23.328;2023-08-21T08:22:48;93326.53;;;28.83;41.43
6198;BME280;3132;42.622;23.328;2023-08-21T08:25:13;93324.72;;;28.47;42.89
6198;BME280;3132;42.622;23.328;2023-08-21T08:27:39;93330.16;;;28.54;42.24
6198;BME280;3132;42.622;23.328;2023-08-21T08:30:05;93328.16;;;28.95;41.42
6198;BME280;3132;42.622;23.328;2023-08-21T08:32:31;93323.59;;;28.48;42.04
6198;BME280;3132;42.622;23.328;2023-08-21T08:34:56;93309.56;;;28.25;43.29
6198;BME280;3132;42.622;23.328;2023-08-21T08:37:21;93329.31;;;28.47;41.66
6198;BME280;3132;42.622;23.328;2023-08-21T08:39:47;93317.72;;;28.39;42.30
6198;BME280;3132;42.622;23.328;2023-08-21T08:42:14;93323.25;;;28.57;42.71
6198;BME280;3132;42.622;23.328;2023-08-21T08:44:39;93307.97;;;28.64;41.21
6198;BME280;3132;42.622;23.328;2023-08-21T08:47:06;93313.72;;;28.63;40.94
6198;BME280;3132;42.622;23.328;2023-08-21T08:49:32;93300.28;;;28.59;41.07
6198;BME280;3132;42.622;23.328;2023-08-21T08:51:59;93306.97;;;28.39;41.50
6198;BME280;3132;42.622;23.328;2023-08-21T08:54:25;93304.53;;;28.20;41.71
6198;BME280;3132;42.622;23.328;2023-08-21T08:56:51;93315.72;;;28.73;40.12
6198;BME280;3132;42.622;23.328;2023-08-21T08:59:17;93302.34;;;28.83;39.75
6198;BME280;3132;42.622;23.328;2023-08-21T09:01:42;93278.81;;;28.66;40.08
6198;BME280;3132;42.622;23.328;2023-08-21T09:04:08;93313.75;;;29.27;40.05
6198;BME280;3132;42.622;23.328;2023-08-21T09:06:34;93310.38;;;29.48;39.52
6198;BME280;3132;42.622;23.328;2023-08-21T09:08:59;93314.94;;;29.40;40.11
6198;BME280;3132;42.622;23.328;2023-08-21T09:11:25;93311.94;;;29.59;38.77
6198;BME280;3132;42.622;23.328;2023-08-21T09:13:52;93306.09;;;29.36;39.29
6198;BME280;3132;42.622;23.328;2023-08-21T09:16:19;93306.81;;;29.26;38.62
6198;BME280;3132;42.622;23.328;2023-08-21T09:18:51;93303.78;;;29.35;39.35
6198;BME280;3132;42.622;23.328;2023-08-21T09:21:21;93301.19;;;29.59;38.52
6198;BME280;3132;42.622;23.328;2023-08-21T09:23:47;93306.91;;;29.47;37.79
6198;BME280;3132;42.622;23.328;2023-08-21T09:26:23;93298.19;;;29.68;36.62
6198;BME280;3132;42.622;23.328;2023-08-21T09:28:49;93310.00;;;29.49;38.17
6198;BME280;3132;42.622;23.328;2023-08-21T09:31:15;93305.88;;;29.69;37.74
6198;BME280;3132;42.622;23.328;2023-08-21T09:33:42;93295.03;;;29.55;37.47
6198;BME280;3132;42.622;23.328;2023-08-21T09:36:09;93300.78;;;29.50;37.25
6198;BME280;3132;42.622;23.328;2023-08-21T09:38:38;93287.97;;;29.26;38.10
6198;BME280;3132;42.622;23.328;2023-08-21T09:41:03;93293.69;;;29.14;37.77
6198;BME280;3132;42.622;23.328;2023-08-21T09:43:29;93298.97;;;29.76;37.82
6198;BME280;3132;42.622;23.328;2023-08-21T09:45:55;93292.84;;;29.93;37.02
6198;BME280;3132;42.622;23.328;2023-08-21T09:48:27;93296.31;;;29.97;37.62
6198;BME280;3132;42.622;23.328;2023-08-21T09:50:53;93294.41;;;30.08;36.32
6198;BME280;3132;42.622;23.328;2023-08-21T09:53:22;93291.00;;;30.32;35.89
6198;BME280;3132;42.622;23.328;2023-08-21T09:55:53;93288.69;;;30.27;36.98
6198;BME280;3132;42.622;23.328;2023-08-21T09:58:19;93294.47;;;30.43;36.59
6198;BME280;3132;42.622;23.328;2023-08-21T10:00:45;93286.34;;;30.15;36.10
6198;BME280;3132;42.622;23.328;2023-08-21T10:03:13;93270.97;;;30.26;36.42
6198;BME280;3132;42.622;23.328;2023-08-21T10:05:42;93289.44;;;30.24;36.88
6198;BME280;3132;42.622;23.328;2023-08-21T10:08:09;93279.38;;;30.00;35.59
6198;BME280;3132;42.622;23.328;2023-08-21T10:10:37;93275.50;;;29.90;36.13
6198;BME280;3132;42.622;23.328;2023-08-21T10:13:04;93272.84;;;30.08;36.37
6198;BME280;3132;42.622;23.328;2023-08-21T10:15:31;93279.81;;;30.44;34.85
6198;BME280;3132;42.622;23.328;2023-08-21T10:18:17;93268.28;;;30.40;33.62
6198;BME280;3132;42.622;23.328;2023-08-21T10:20:43;93269.34;;;29.83;35.05
6198;BME280;3132;42.622;23.328;2023-08-21T10:23:08;93266.25;;;29.73;35.97
6198;BME280;3132;42.622;23.328;2023-08-21T10:25:41;93263.22;;;29.93;35.78
6198;BME280;3132;42.622;23.328;2023-08-21T10:28:06;93259.00;;;30.20;35.03
6198;BME280;3132;42.622;23.328;2023-08-21T10:30:32;93270.19;;;30.43;35.20
6198;BME280;3132;42.622;23.328;2023-08-21T10:32:59;93255.53;;;29.95;35.10
6198;BME280;3132;42.622;23.328;2023-08-21T10:35:30;93246.28;;;30.06;35.90
6198;BME280;3132;42.622;23.328;2023-08-21T10:38:15;93247.09;;;30.42;34.80
6198;BME280;3132;42.622;23.328;2023-08-21T10:41:05;93247.06;;;30.63;33.71
6198;BME280;3132;42.622;23.328;2023-08-21T10:43:42;93243.59;;;30.03;35.22
6198;BME280;3132;42.622;23.328;2023-08-21T10:46:11;93232.03;;;30.62;36.28
6198;BME280;3132;42.622;23.328;2023-08-21T10:48:38;93234.34;;;30.88;33.71
6198;BME280;3132;42.622;23.328;2023-08-21T10:51:06;93239.38;;;30.75;34.04
6198;BME280;3132;42.622;23.328;2023-08-21T10:53:33;93234.75;;;30.51;33.42
6198;BME280;3132;42.622;23.328;2023-08-21T10:56:05;93241.66;;;30.84;31.62
6198;BME280;3132;42.622;23.328;2023-08-21T10:58:43;93231.16;;;31.14;32.56
6198;BME280;3132;42.622;23.328;2023-08-21T11:01:12;93228.38;;;31.39;32.54
6198;BME280;3132;42.622;23.328;2023-08-21T11:03:39;93230.28;;;31.38;32.27
6198;BME280;3132;42.622;23.328;2023-08-21T11:06:08;93228.19;;;31.74;31.29
6198;BME280;3132;42.622;23.328;2023-08-21T11:08:35;93228.63;;;31.62;30.69
6198;BME280;3132;42.622;23.328;2023-08-21T11:11:02;93212.22;;;31.21;32.46
6198;BME280;3132;42.622;23.328;2023-08-21T11:13:28;93218.50;;;31.83;31.37
6198;BME280;3132;42.622;23.328;2023-08-21T11:16:04;93221.97;;;31.84;30.74
6198;BME280;3132;42.622;23.328;2023-08-21T11:18:37;93215.78;;;31.87;31.09
6198;BME280;3132;42.622;23.328;2023-08-21T11:21:09;93221.06;;;32.04;31.53
6198;BME280;3132;42.622;23.328;2023-08-21T11:23:39;93212.69;;;31.88;32.49
6198;BME280;3132;42.622;23.328;2023-08-21T11:26:06;93213.44;;;31.92;32.01
6198;BME280;3132;42.622;23.328;2023-08-21T11:28:32;93212.19;;;32.00;31.74
6198;BME280;3132;42.622;23.328;2023-08-21T11:30:58;93219.16;;;31.98;31.22
6198;BME280;3132;42.622;23.328;2023-08-21T11:33:25;93211.13;;;31.91;31.73
6198;BME280;3132;42.622;23.328;2023-08-21T11:35:51;93214.41;;;31.58;31.04
6198;BME280;3132;42.622;23.328;2023-08-21T11:38:21;93204.38;;;31.55;31.19
6198;BME280;3132;42.622;23.328;2023-08-21T11:40:54;93203.66;;;31.47;32.23
6198;BME280;3132;42.622;23.328;2023-08-21T11:43:19;93191.22;;;30.56;32.77
6198;BME280;3132;42.622;23.328;2023-08-21T11:45:46;93190.69;;;31.14;32.42
6198;BME280;3132;42.622;23.328;2023-08-21T11:48:11;93188.44;;;30.98;32.44
6198;BME280;3132;42.622;23.328;2023-08-21T11:50:37;93192.94;;;31.26;33.02
6198;BME280;3132;42.622;23.328;2023-08-21T11:53:02;93195.31;;;31.10;32.42
6198;BME280;3132;42.622;23.328;2023-08-21T11:55:29;93187.66;;;31.05;30.84
6198;BME280;3132;42.622;23.328;2023-08-21T11:57:54;93192.97;;;31.19;31.98
6198;BME280;3132;42.622;23.328;2023-08-21T12:00:27;93197.19;;;31.31;31.64
6198;BME280;3132;42.622;23.328;2023-08-21T12:02:55;93193.59;;;31.51;30.94
6198;BME280;3132;42.622;23.328;2023-08-21T12:05:24;93193.94;;;31.60;30.40
6198;BME280;3132;42.622;23.328;2023-08-21T12:07:50;93186.59;;;31.64;29.18
6198;BME280;3132;42.622;23.328;2023-08-21T12:10:22;93192.81;;;31.54;29.14
6198;BME280;3132;42.622;23.328;2023-08-21T12:12:48;93188.25;;;31.44;28.96
6198;BME280;3132;42.622;23.328;2023-08-21T12:15:13;93189.41;;;31.43;29.58
6198;BME280;3132;42.622;23.328;2023-08-21T12:17:38;93191.31;;;31.46;29.96
6198;BME280;3132;42.622;23.328;2023-08-21T12:20:04;93186.22;;;31.59;29.59
6198;BME280;3132;42.622;23.328;2023-08-21T12:22:37;93171.50;;;31.67;29.35
6198;BME280;3132;42.622;23.328;2023-08-21T12:25:02;93176.03;;;31.80;29.69
6198;BME280;3132;42.622;23.328;2023-08-21T12:27:29;93177.38;;;31.58;29.79
6198;BME280;3132;42.622;23.328;2023-08-21T12:29:54;93185.03;;;31.63;29.33
6198;BME280;3132;42.622;23.328;2023-08-21T12:32:20;93171.19;;;31.61;28.91
6198;BME280;3132;42.622;23.328;2023-08-21T12:34:45;93164.97;;;31.64;28.28
6198;BME280;3132;42.622;23.328;2023-08-21T12:37:10;93148.03;;;31.60;28.37
6198;BME280;3132;42.622;23.328;2023-08-21T12:39:36;93157.78;;;31.40;28.95
6198;BME280;3132;42.622;23.328;2023-08-21T12:42:01;93165.91;;;31.40;28.61
6198;BME280;3132;42.622;23.328;2023-08-21T12:44:26;93164.13;;;31.74;29.06
6198;BME280;3132;42.622;23.328;2023-08-21T12:46:52;93167.53;;;31.85;28.31
6198;BME280;3132;42.622;23.328;2023-08-21T12:49:17;93166.41;;;31.79;28.30
6198;BME280;3132;42.622;23.328;2023-08-21T12:51:42;93170.03;;;31.55;28.40
6198;BME280;3132;42.622;23.328;2023-08-21T12:54:08;93155.81;;;31.51;27.01
6198;BME280;3132;42.622;23.328;2023-08-21T12:56:34;93144.31;;;31.40;27.80
6198;BME280;3132;42.622;23.328;2023-08-21T12:59:00;93151.22;;;31.41;27.91
6198;BME280;3132;42.622;23.328;2023-08-21T13:01:26;93148.97;;;31.36;29.53
6198;BME280;3132;42.622;23.328;2023-08-21T13:03:51;93154.38;;;31.25;29.38
6198;BME280;3132;42.622;23.328;2023-08-21T13:06:16;93140.19;;;31.14;29.44
6198;BME280;3132;42.622;23.328;2023-08-21T13:08:42;93143.19;;;31.27;29.88
6198;BME280;3132;42.622;23.328;2023-08-21T13:11:08;93140.81;;;31.43;29.85
6198;BME280;3132;42.622;23.328;2023-08-21T13:13:35;93126.91;;;31.48;28.37
6198;BME280;3132;42.622;23.328;2023-08-21T13:16:00;93139.50;;;31.65;29.62
6198;BME280;3132;42.622;23.328;2023-08-21T13:18:26;93119.50;;;31.56;29.20
6198;BME280;3132;42.622;23.328;2023-08-21T13:20:51;93138.72;;;31.68;29.19
6198;BME280;3132;42.622;23.328;2023-08-21T13:23:17;93137.91;;;31.71;29.20
6198;BME280;3132;42.622;23.328;2023-08-21T13:25:42;93127.09;;;31.75;29.09
6198;BME280;3132;42.622;23.328;2023-08-21T13:28:07;93129.38;;;31.76;29.00
6198;BME280;3132;42.622;23.328;2023-08-21T13:30:33;93130.97;;;31.74;28.91